createdAt,value
2016-09-30T00:00:04.807Z,0
2016-09-30T00:01:04.903Z,0
2016-09-30T00:02:04.939Z,0
2016-09-30T00:03:04.992Z,0
2016-09-30T00:04:05.043Z,0
2016-09-30T00:05:05.108Z,0
2016-09-30T00:06:05.174Z,0
2016-09-30T00:07:05.215Z,0
2016-09-30T00:08:05.282Z,0
2016-09-30T00:09:05.333Z,0
2016-09-30T00:10:05.389Z,0
2016-09-30T00:11:05.440Z,0
2016-09-30T00:12:05.515Z,0
2016-09-30T00:13:05.578Z,0
2016-09-30T00:14:05.644Z,0
2016-09-30T00:15:05.701Z,0
2016-09-30T00:16:05.729Z,0
2016-09-30T00:17:05.799Z,0
2016-09-30T00:18:05.832Z,0
2016-09-30T00:19:05.920Z,0
2016-09-30T00:20:05.965Z,0
2016-09-30T00:21:06.023Z,0
2016-09-30T00:22:06.080Z,0
2016-09-30T00:23:06.122Z,0
2016-09-30T00:24:06.202Z,0
2016-09-30T00:25:06.236Z,0
2016-09-30T00:26:06.330Z,0
2016-09-30T00:27:06.377Z,0
2016-09-30T00:28:06.445Z,0
2016-09-30T00:29:06.503Z,0
2016-09-30T00:30:06.541Z,0
2016-09-30T00:31:06.595Z,0
2016-09-30T00:32:06.664Z,0
2016-09-30T00:33:06.728Z,0
2016-09-30T00:34:06.766Z,0
2016-09-30T00:35:06.841Z,0
2016-09-30T00:36:06.905Z,0
2016-09-30T00:37:06.950Z,0
2016-09-30T00:38:06.987Z,0
2016-09-30T00:39:07.065Z,0
2016-09-30T00:40:07.110Z,0
2016-09-30T00:41:07.149Z,0
2016-09-30T00:42:07.221Z,0
2016-09-30T00:43:07.284Z,0
2016-09-30T00:44:07.354Z,0
2016-09-30T00:45:07.381Z,0
2016-09-30T00:46:07.568Z,0
2016-09-30T00:47:07.495Z,0
2016-09-30T00:48:07.561Z,0
2016-09-30T00:49:07.637Z,0
2016-09-30T00:50:07.672Z,0
2016-09-30T00:51:07.765Z,0
2016-09-30T00:52:07.787Z,0
2016-09-30T00:53:07.845Z,0
2016-09-30T00:54:07.908Z,0
2016-09-30T00:55:07.977Z,0
2016-09-30T00:56:08.005Z,0
2016-09-30T00:57:08.088Z,0
2016-09-30T00:58:08.151Z,0
2016-09-30T00:59:08.191Z,0
2016-09-30T01:00:08.247Z,0
2016-09-30T01:01:08.302Z,0
2016-09-30T01:02:08.362Z,0
2016-09-30T01:03:08.431Z,0
2016-09-30T01:04:08.470Z,0
2016-09-30T01:05:08.545Z,0
2016-09-30T01:06:08.585Z,0
2016-09-30T01:07:08.642Z,0
2016-09-30T01:08:08.700Z,0
2016-09-30T01:09:08.752Z,0
2016-09-30T01:10:08.811Z,0
2016-09-30T01:11:08.883Z,0
2016-09-30T01:12:08.932Z,0
2016-09-30T01:13:08.997Z,0
2016-09-30T01:14:09.038Z,0
2016-09-30T01:15:09.100Z,0
2016-09-30T01:16:09.137Z,0
2016-09-30T01:17:09.212Z,0
2016-09-30T01:18:09.266Z,0
2016-09-30T01:19:09.317Z,0
2016-09-30T01:20:09.393Z,0
2016-09-30T01:21:09.437Z,0
2016-09-30T01:22:09.497Z,0
2016-09-30T01:23:09.545Z,0
2016-09-30T01:24:09.606Z,0
2016-09-30T01:25:09.684Z,0
2016-09-30T01:26:09.713Z,0
2016-09-30T01:27:09.781Z,0
2016-09-30T01:28:09.860Z,0
2016-09-30T01:29:09.904Z,0
2016-09-30T01:30:09.963Z,0
2016-09-30T01:31:10.012Z,0
2016-09-30T01:32:10.059Z,0
2016-09-30T01:33:10.140Z,0
2016-09-30T01:34:10.171Z,0
2016-09-30T01:35:10.254Z,0
2016-09-30T01:36:10.321Z,0
2016-09-30T01:37:10.346Z,0
2016-09-30T01:38:10.412Z,0
2016-09-30T01:39:10.468Z,0
2016-09-30T01:40:10.503Z,0
2016-09-30T01:41:10.582Z,0
2016-09-30T01:42:10.629Z,0
2016-09-30T01:43:10.684Z,0
2016-09-30T01:44:10.752Z,0
2016-09-30T01:45:10.803Z,0
2016-09-30T01:46:10.850Z,0
2016-09-30T01:47:10.905Z,0
2016-09-30T01:48:10.995Z,0
2016-09-30T01:49:11.036Z,0
2016-09-30T01:50:11.089Z,0
2016-09-30T01:51:11.135Z,0
2016-09-30T01:52:11.199Z,0
2016-09-30T01:53:11.272Z,0
2016-09-30T01:54:11.336Z,0
2016-09-30T01:55:11.380Z,0
2016-09-30T01:56:11.444Z,0
2016-09-30T01:57:11.494Z,0
2016-09-30T01:58:11.543Z,0
2016-09-30T01:59:11.614Z,0
2016-09-30T02:00:11.646Z,0
2016-09-30T02:01:11.729Z,0
2016-09-30T02:02:11.761Z,0
2016-09-30T02:03:11.815Z,0
2016-09-30T02:04:11.877Z,0
2016-09-30T02:05:11.942Z,0
2016-09-30T02:06:11.999Z,0
2016-09-30T02:07:12.067Z,0
2016-09-30T02:08:12.126Z,0
2016-09-30T02:09:12.175Z,0
2016-09-30T02:10:12.233Z,0
2016-09-30T02:11:12.268Z,0
2016-09-30T02:12:12.358Z,0
2016-09-30T02:13:12.405Z,0
2016-09-30T02:14:12.473Z,0
2016-09-30T02:15:12.518Z,0
2016-09-30T02:16:12.581Z,0
2016-09-30T02:17:12.637Z,0
2016-09-30T02:18:12.687Z,0
2016-09-30T02:19:12.737Z,0
2016-09-30T02:20:12.802Z,0
2016-09-30T02:21:12.855Z,0
2016-09-30T02:22:12.917Z,0
2016-09-30T02:23:12.951Z,0
2016-09-30T02:24:13.026Z,0
2016-09-30T02:25:13.088Z,0
2016-09-30T02:26:13.122Z,0
2016-09-30T02:27:13.200Z,0
2016-09-30T02:28:13.236Z,0
2016-09-30T02:29:13.311Z,0
2016-09-30T02:30:13.368Z,0
2016-09-30T02:31:13.412Z,0
2016-09-30T02:32:13.472Z,0
2016-09-30T02:33:13.523Z,0
2016-09-30T02:34:13.590Z,0
2016-09-30T02:35:13.670Z,0
2016-09-30T02:36:13.724Z,0
2016-09-30T02:37:13.783Z,0
2016-09-30T02:38:13.806Z,0
2016-09-30T02:39:13.861Z,0
2016-09-30T02:40:13.936Z,0
2016-09-30T02:41:13.998Z,0
2016-09-30T02:42:14.055Z,0
2016-09-30T02:43:14.126Z,0
2016-09-30T02:44:14.180Z,0
2016-09-30T02:45:14.220Z,0
2016-09-30T02:46:14.304Z,0
2016-09-30T02:47:14.325Z,0
2016-09-30T02:48:14.396Z,0
2016-09-30T02:49:14.465Z,0
2016-09-30T02:50:14.510Z,0
2016-09-30T02:51:14.566Z,0
2016-09-30T02:52:14.611Z,0
2016-09-30T02:53:14.674Z,0
2016-09-30T02:54:14.735Z,0
2016-09-30T02:55:14.779Z,0
2016-09-30T02:56:14.837Z,0
2016-09-30T02:57:14.892Z,0
2016-09-30T02:58:14.996Z,0
2016-09-30T02:59:15.020Z,0
2016-09-30T03:00:15.077Z,0
2016-09-30T03:01:15.129Z,0
2016-09-30T03:02:15.196Z,0
2016-09-30T03:03:15.251Z,0
2016-09-30T03:04:15.306Z,0
2016-09-30T03:05:15.376Z,0
2016-09-30T03:06:15.411Z,0
2016-09-30T03:07:15.481Z,0
2016-09-30T03:08:15.549Z,0
2016-09-30T03:09:15.597Z,0
2016-09-30T03:10:15.633Z,0
2016-09-30T03:11:15.717Z,0
2016-09-30T03:12:15.785Z,0
2016-09-30T03:13:15.817Z,0
2016-09-30T03:14:15.876Z,0
2016-09-30T03:15:15.933Z,0
2016-09-30T03:16:15.982Z,0
2016-09-30T03:17:16.036Z,0
2016-09-30T03:18:16.417Z,0
2016-09-30T03:19:16.159Z,0
2016-09-30T03:20:16.220Z,0
2016-09-30T03:21:16.254Z,0
2016-09-30T03:22:16.310Z,0
2016-09-30T03:23:16.381Z,0
2016-09-30T03:24:16.457Z,0
2016-09-30T03:25:16.503Z,0
2016-09-30T03:26:16.548Z,0
2016-09-30T03:27:16.618Z,0
2016-09-30T03:28:16.664Z,0
2016-09-30T03:29:16.725Z,0
2016-09-30T03:30:16.778Z,0
2016-09-30T03:31:16.819Z,0
2016-09-30T03:32:16.884Z,0
2016-09-30T03:33:16.957Z,0
2016-09-30T03:34:16.998Z,0
2016-09-30T03:35:17.061Z,0
2016-09-30T03:36:17.135Z,0
2016-09-30T03:37:17.178Z,0
2016-09-30T03:38:17.232Z,0
2016-09-30T03:39:17.295Z,0
2016-09-30T03:40:17.362Z,0
2016-09-30T03:41:17.425Z,0
2016-09-30T03:42:17.450Z,0
2016-09-30T03:43:17.537Z,0
2016-09-30T03:44:17.590Z,0
2016-09-30T03:45:17.650Z,0
2016-09-30T03:46:17.701Z,0
2016-09-30T03:47:17.735Z,0
2016-09-30T03:48:17.822Z,0
2016-09-30T03:49:17.877Z,0
2016-09-30T03:50:17.899Z,0
2016-09-30T03:51:17.988Z,0
2016-09-30T03:52:18.036Z,0
2016-09-30T03:53:18.087Z,0
2016-09-30T03:54:18.157Z,0
2016-09-30T03:55:18.203Z,0
2016-09-30T03:56:18.264Z,0
2016-09-30T03:57:18.313Z,0
2016-09-30T03:58:18.376Z,0
2016-09-30T03:59:18.421Z,0
2016-09-30T04:00:18.497Z,0
2016-09-30T04:01:18.542Z,0
2016-09-30T04:02:18.618Z,0
2016-09-30T04:03:18.642Z,0
2016-09-30T04:04:18.720Z,0
2016-09-30T04:05:18.769Z,0
2016-09-30T04:06:18.814Z,0
2016-09-30T04:07:18.876Z,0
2016-09-30T04:08:18.944Z,0
2016-09-30T04:09:18.991Z,0
2016-09-30T04:10:19.084Z,0
2016-09-30T04:11:19.120Z,0
2016-09-30T04:12:19.163Z,0
2016-09-30T04:13:19.230Z,0
2016-09-30T04:14:19.305Z,0
2016-09-30T04:15:19.352Z,0
2016-09-30T04:16:19.398Z,0
2016-09-30T04:17:19.461Z,0
2016-09-30T04:18:19.523Z,0
2016-09-30T04:19:19.579Z,0
2016-09-30T04:20:19.630Z,0
2016-09-30T04:21:19.694Z,0
2016-09-30T04:22:19.750Z,0
2016-09-30T04:23:19.776Z,0
2016-09-30T04:24:19.851Z,0
2016-09-30T04:25:19.896Z,0
2016-09-30T04:26:19.993Z,0
2016-09-30T04:27:20.031Z,0
2016-09-30T04:28:20.080Z,0
2016-09-30T04:29:20.153Z,0
2016-09-30T04:30:20.203Z,0
2016-09-30T04:31:20.261Z,0
2016-09-30T04:32:20.313Z,0
2016-09-30T04:33:20.376Z,0
2016-09-30T04:34:20.436Z,0
2016-09-30T04:35:20.477Z,0
2016-09-30T04:36:20.543Z,0
2016-09-30T04:37:20.592Z,0
2016-09-30T04:38:20.651Z,0
2016-09-30T04:39:20.725Z,0
2016-09-30T04:40:20.750Z,0
2016-09-30T04:41:20.816Z,0
2016-09-30T04:42:20.892Z,0
2016-09-30T04:43:20.941Z,0
2016-09-30T04:44:20.980Z,0
2016-09-30T04:45:21.033Z,0
2016-09-30T04:46:21.105Z,0
2016-09-30T04:47:21.167Z,0
2016-09-30T04:48:21.221Z,0
2016-09-30T04:49:21.275Z,0
2016-09-30T04:50:21.324Z,0
2016-09-30T04:51:21.388Z,4
2016-09-30T04:52:21.452Z,4
2016-09-30T04:53:21.523Z,4
2016-09-30T04:54:21.562Z,0
2016-09-30T04:55:21.603Z,4
2016-09-30T04:56:21.682Z,4
2016-09-30T04:57:21.725Z,4
2016-09-30T04:58:21.795Z,4
2016-09-30T04:59:21.839Z,8
2016-09-30T05:00:21.907Z,8
2016-09-30T05:01:21.973Z,8
2016-09-30T05:02:22.021Z,12
2016-09-30T05:03:22.072Z,12
2016-09-30T05:04:22.131Z,12
2016-09-30T05:05:22.188Z,16
2016-09-30T05:06:22.266Z,16
2016-09-30T05:07:22.323Z,20
2016-09-30T05:08:22.350Z,20
2016-09-30T05:09:22.407Z,24
2016-09-30T05:10:22.460Z,28
2016-09-30T05:11:22.514Z,32
2016-09-30T05:12:22.581Z,36
2016-09-30T05:13:22.658Z,40
2016-09-30T05:14:22.706Z,44
2016-09-30T05:15:22.764Z,48
2016-09-30T05:16:22.813Z,56
2016-09-30T05:17:22.857Z,60
2016-09-30T05:18:22.944Z,72
2016-09-30T05:19:23.001Z,76
2016-09-30T05:20:23.044Z,84
2016-09-30T05:21:23.105Z,96
2016-09-30T05:22:23.158Z,104
2016-09-30T05:23:23.221Z,112
2016-09-30T05:24:23.264Z,120
2016-09-30T05:25:23.334Z,128
2016-09-30T05:26:23.383Z,140
2016-09-30T05:27:23.432Z,144
2016-09-30T05:28:23.504Z,156
2016-09-30T05:29:23.561Z,164
2016-09-30T05:30:23.629Z,172
2016-09-30T05:31:23.681Z,184
2016-09-30T05:32:23.721Z,192
2016-09-30T05:33:23.786Z,204
2016-09-30T05:34:23.848Z,212
2016-09-30T05:35:23.910Z,220
2016-09-30T05:36:23.964Z,228
2016-09-30T05:37:23.999Z,236
2016-09-30T05:38:24.085Z,244
2016-09-30T05:39:24.126Z,252
2016-09-30T05:40:24.200Z,264
2016-09-30T05:41:24.268Z,272
2016-09-30T05:42:24.312Z,280
2016-09-30T05:43:24.372Z,288
2016-09-30T05:44:24.421Z,292
2016-09-30T05:45:24.459Z,300
2016-09-30T05:46:24.546Z,304
2016-09-30T05:47:24.607Z,312
2016-09-30T05:48:24.645Z,316
2016-09-30T05:49:24.687Z,324
2016-09-30T05:50:24.777Z,332
2016-09-30T05:51:24.822Z,340
2016-09-30T05:52:24.896Z,344
2016-09-30T05:53:24.938Z,352
2016-09-30T05:54:24.993Z,360
2016-09-30T05:55:25.042Z,368
2016-09-30T05:56:25.404Z,376
2016-09-30T05:57:25.162Z,384
2016-09-30T05:58:25.239Z,404
2016-09-30T05:59:25.267Z,416
2016-09-30T06:00:25.354Z,424
2016-09-30T06:01:25.404Z,432
2016-09-30T06:02:25.468Z,440
2016-09-30T06:03:25.503Z,452
2016-09-30T06:04:25.568Z,464
2016-09-30T06:05:25.619Z,476
2016-09-30T06:06:25.665Z,488
2016-09-30T06:07:25.791Z,500
2016-09-30T06:08:25.804Z,504
2016-09-30T06:09:25.853Z,524
2016-09-30T06:10:25.924Z,560
2016-09-30T06:11:25.962Z,584
2016-09-30T06:12:26.003Z,600
2016-09-30T06:13:26.082Z,612
2016-09-30T06:14:26.163Z,628
2016-09-30T06:15:26.197Z,648
2016-09-30T06:16:26.267Z,664
2016-09-30T06:17:26.436Z,684
2016-09-30T06:18:26.367Z,700
2016-09-30T06:19:26.439Z,716
2016-09-30T06:20:26.479Z,740
2016-09-30T06:21:26.553Z,760
2016-09-30T06:22:26.574Z,780
2016-09-30T06:23:26.632Z,800
2016-09-30T06:24:26.709Z,820
2016-09-30T06:25:26.769Z,844
2016-09-30T06:26:26.802Z,868
2016-09-30T06:27:26.868Z,888
2016-09-30T06:28:26.933Z,912
2016-09-30T06:29:26.975Z,936
2016-09-30T06:30:27.067Z,960
2016-09-30T06:31:27.395Z,984
2016-09-30T06:32:27.158Z,1008
2016-09-30T06:33:27.215Z,1028
2016-09-30T06:34:27.273Z,1052
2016-09-30T06:35:27.344Z,1076
2016-09-30T06:36:27.398Z,1100
2016-09-30T06:37:27.456Z,1120
2016-09-30T06:38:27.485Z,1144
2016-09-30T06:39:27.545Z,1164
2016-09-30T06:40:27.636Z,1188
2016-09-30T06:41:27.659Z,1208
2016-09-30T06:42:27.746Z,1228
2016-09-30T06:43:27.792Z,1252
2016-09-30T06:44:28.172Z,1268
2016-09-30T06:45:27.906Z,1292
2016-09-30T06:46:27.977Z,1304
2016-09-30T06:47:28.017Z,1324
2016-09-30T06:48:28.067Z,1344
2016-09-30T06:49:28.127Z,1364
2016-09-30T06:50:28.197Z,1388
2016-09-30T06:51:28.239Z,1412
2016-09-30T06:52:28.319Z,1436
2016-09-30T06:53:28.359Z,1460
2016-09-30T06:54:28.399Z,1488
2016-09-30T06:55:28.468Z,1512
2016-09-30T06:56:28.720Z,1536
2016-09-30T06:57:28.582Z,1556
2016-09-30T06:58:28.657Z,1584
2016-09-30T06:59:28.688Z,1612
2016-09-30T07:00:28.748Z,1644
2016-09-30T07:01:28.831Z,1672
2016-09-30T07:02:29.074Z,1700
2016-09-30T07:03:28.910Z,1728
2016-09-30T07:04:28.980Z,1752
2016-09-30T07:05:29.059Z,1768
2016-09-30T07:06:29.116Z,1788
2016-09-30T07:07:29.145Z,1804
2016-09-30T07:08:29.224Z,1824
2016-09-30T07:09:29.255Z,1856
2016-09-30T07:10:29.330Z,1896
2016-09-30T07:11:29.378Z,1964
2016-09-30T07:12:29.451Z,2060
2016-09-30T07:13:29.514Z,2212
2016-09-30T07:14:29.549Z,2484
2016-09-30T07:15:29.618Z,2788
2016-09-30T07:16:29.664Z,2932
2016-09-30T07:17:29.729Z,2976
2016-09-30T07:18:29.797Z,3048
2016-09-30T07:19:29.837Z,3096
2016-09-30T07:20:29.877Z,3144
2016-09-30T07:21:29.960Z,3188
2016-09-30T07:22:29.998Z,3220
2016-09-30T07:23:30.108Z,3292
2016-09-30T07:24:30.132Z,3372
2016-09-30T07:25:30.166Z,3432
2016-09-30T07:26:30.237Z,3576
2016-09-30T07:27:30.279Z,3676
2016-09-30T07:28:30.525Z,3620
2016-09-30T07:29:30.403Z,3608
2016-09-30T07:30:30.473Z,3700
2016-09-30T07:31:30.726Z,3856
2016-09-30T07:32:30.562Z,4064
2016-09-30T07:33:30.638Z,4308
2016-09-30T07:34:30.709Z,4704
2016-09-30T07:35:30.737Z,4884
2016-09-30T07:36:30.821Z,4960
2016-09-30T07:37:30.864Z,5008
2016-09-30T07:38:30.900Z,5036
2016-09-30T07:39:30.989Z,5080
2016-09-30T07:40:31.032Z,5208
2016-09-30T07:41:31.096Z,5336
2016-09-30T07:42:31.152Z,5444
2016-09-30T07:43:31.196Z,5528
2016-09-30T07:44:31.276Z,5384
2016-09-30T07:45:31.331Z,5336
2016-09-30T07:46:31.394Z,5360
2016-09-30T07:47:31.572Z,5188
2016-09-30T07:48:31.511Z,4948
2016-09-30T07:49:31.544Z,3680
2016-09-30T07:50:31.605Z,2412
2016-09-30T07:51:31.658Z,2260
2016-09-30T07:52:31.714Z,2220
2016-09-30T07:53:31.802Z,2200
2016-09-30T07:54:31.847Z,2196
2016-09-30T07:55:31.880Z,2188
2016-09-30T07:56:31.955Z,2192
2016-09-30T07:57:31.994Z,2184
2016-09-30T07:58:32.067Z,2180
2016-09-30T07:59:32.130Z,2172
2016-09-30T08:00:32.185Z,2168
2016-09-30T08:01:32.433Z,2168
2016-09-30T08:02:32.528Z,2160
2016-09-30T08:03:32.360Z,2164
2016-09-30T08:04:47.338Z,2160
2016-09-30T08:05:32.454Z,2156
2016-09-30T08:06:32.515Z,2152
2016-09-30T08:07:32.596Z,2144
2016-09-30T08:08:32.654Z,2144
2016-09-30T08:09:32.691Z,2144
2016-09-30T08:10:32.839Z,2136
2016-09-30T08:11:32.792Z,2132
2016-09-30T08:12:32.866Z,2124
2016-09-30T08:13:32.932Z,2120
2016-09-30T08:14:32.987Z,2116
2016-09-30T08:15:33.039Z,2120
2016-09-30T08:16:33.106Z,2116
2016-09-30T08:17:33.455Z,2112
2016-09-30T08:18:33.208Z,2112
2016-09-30T08:19:33.283Z,2108
2016-09-30T08:20:33.527Z,2100
2016-09-30T08:21:33.371Z,2092
2016-09-30T08:22:33.421Z,2088
2016-09-30T08:23:33.497Z,2084
2016-09-30T08:24:33.556Z,2076
2016-09-30T08:25:33.611Z,2068
2016-09-30T08:26:33.661Z,2060
2016-09-30T08:27:33.718Z,2060
2016-09-30T08:28:33.778Z,2056
2016-09-30T08:29:34.083Z,2060
2016-09-30T08:30:33.884Z,2060
2016-09-30T08:31:33.949Z,2064
2016-09-30T08:32:33.998Z,2068
2016-09-30T08:33:34.060Z,2072
2016-09-30T08:34:34.145Z,2080
2016-09-30T08:35:34.379Z,2084
2016-09-30T08:36:34.446Z,2088
2016-09-30T08:37:34.304Z,2080
2016-09-30T08:38:34.368Z,2076
2016-09-30T08:39:34.425Z,2076
2016-09-30T08:40:34.485Z,2076
2016-09-30T08:41:34.519Z,2076
2016-09-30T08:42:34.596Z,2072
2016-09-30T08:43:34.651Z,2068
2016-09-30T08:44:34.673Z,2064
2016-09-30T08:45:34.753Z,2060
2016-09-30T08:46:34.799Z,2056
2016-09-30T08:47:34.846Z,2064
2016-09-30T08:48:34.904Z,2068
2016-09-30T08:49:34.995Z,2068
2016-09-30T08:50:35.046Z,2068
2016-09-30T08:51:35.102Z,2064
2016-09-30T08:52:35.130Z,2064
2016-09-30T08:53:35.217Z,2064
2016-09-30T08:54:35.278Z,2072
2016-09-30T08:55:35.323Z,2080
2016-09-30T08:56:35.392Z,2084
2016-09-30T08:57:35.417Z,2092
2016-09-30T08:58:35.506Z,2092
2016-09-30T08:59:35.562Z,2088
2016-09-30T09:00:35.620Z,2092
2016-09-30T09:01:35.655Z,2096
2016-09-30T09:02:35.713Z,2100
2016-09-30T09:03:35.776Z,2100
2016-09-30T09:04:35.834Z,2096
2016-09-30T09:05:35.885Z,2096
2016-09-30T09:06:35.947Z,2092
2016-09-30T09:07:36.015Z,2092
2016-09-30T09:08:36.249Z,2096
2016-09-30T09:09:36.118Z,2092
2016-09-30T09:10:36.176Z,2100
2016-09-30T09:11:36.226Z,2104
2016-09-30T09:12:36.283Z,2104
2016-09-30T09:13:36.357Z,2108
2016-09-30T09:14:36.411Z,2116
2016-09-30T09:15:36.477Z,2116
2016-09-30T09:16:36.511Z,2120
2016-09-30T09:17:36.587Z,2128
2016-09-30T09:18:36.625Z,2136
2016-09-30T09:19:36.687Z,2136
2016-09-30T09:20:36.735Z,2132
2016-09-30T09:21:36.820Z,2136
2016-09-30T09:22:36.838Z,2148
2016-09-30T09:23:36.907Z,2160
2016-09-30T09:24:36.960Z,2160
2016-09-30T09:25:37.037Z,2160
2016-09-30T09:26:37.078Z,2168
2016-09-30T09:27:37.144Z,2180
2016-09-30T09:28:37.210Z,2188
2016-09-30T09:29:37.255Z,2192
2016-09-30T09:30:37.324Z,2208
2016-09-30T09:31:37.392Z,2228
2016-09-30T09:32:37.439Z,2236
2016-09-30T09:33:37.480Z,2244
2016-09-30T09:34:37.552Z,2256
2016-09-30T09:35:37.846Z,2272
2016-09-30T09:36:37.669Z,2340
2016-09-30T09:37:37.697Z,2308
2016-09-30T09:38:37.776Z,2320
2016-09-30T09:39:37.841Z,2396
2016-09-30T09:40:37.878Z,2420
2016-09-30T09:41:38.163Z,2440
2016-09-30T09:42:38.020Z,2596
2016-09-30T09:43:38.064Z,2644
2016-09-30T09:44:38.123Z,2516
2016-09-30T09:45:38.195Z,2728
2016-09-30T09:46:38.224Z,2640
2016-09-30T09:47:38.288Z,2716
2016-09-30T09:48:38.351Z,2908
2016-09-30T09:49:38.403Z,2992
2016-09-30T09:50:38.480Z,3676
2016-09-30T09:51:38.522Z,3572
2016-09-30T09:52:38.664Z,3004
2016-09-30T09:53:38.664Z,3252
2016-09-30T09:54:38.703Z,3032
2016-09-30T09:55:38.760Z,2748
2016-09-30T09:56:38.817Z,2864
2016-09-30T09:57:38.871Z,3044
2016-09-30T09:58:38.939Z,2832
2016-09-30T09:59:38.992Z,2808
2016-09-30T10:00:39.064Z,2908
2016-09-30T10:01:39.130Z,2904
2016-09-30T10:02:39.144Z,3068
2016-09-30T10:03:39.229Z,3872
2016-09-30T10:04:39.281Z,4808
2016-09-30T10:05:39.326Z,4536
2016-09-30T10:06:39.377Z,5948
2016-09-30T10:07:39.442Z,5748
2016-09-30T10:08:39.498Z,4904
2016-09-30T10:09:39.584Z,3920
2016-09-30T10:10:39.618Z,3804
2016-09-30T10:11:39.706Z,4336
2016-09-30T10:12:39.725Z,3504
2016-09-30T10:13:39.774Z,5512
2016-09-30T10:14:39.833Z,5828
2016-09-30T10:15:39.911Z,5196
2016-09-30T10:16:39.970Z,2884
2016-09-30T10:17:40.027Z,4092
2016-09-30T10:18:40.070Z,3732
2016-09-30T10:19:40.156Z,4636
2016-09-30T10:20:40.195Z,5404
2016-09-30T10:21:40.256Z,6008
2016-09-30T10:22:40.322Z,4484
2016-09-30T10:23:40.386Z,5848
2016-09-30T10:24:40.724Z,8156
2016-09-30T10:25:40.481Z,6572
2016-09-30T10:26:40.557Z,5688
2016-09-30T10:27:40.585Z,5724
2016-09-30T10:28:40.683Z,6892
2016-09-30T10:29:40.703Z,6996
2016-09-30T10:30:40.793Z,7352
2016-09-30T10:31:40.815Z,7884
2016-09-30T10:32:40.870Z,7036
2016-09-30T10:33:40.963Z,7572
2016-09-30T10:34:41.008Z,6864
2016-09-30T10:35:41.078Z,6448
2016-09-30T10:36:41.105Z,5568
2016-09-30T10:37:41.189Z,5220
2016-09-30T10:38:41.247Z,4496
2016-09-30T10:39:41.312Z,6088
2016-09-30T10:40:41.355Z,8112
2016-09-30T10:41:41.406Z,9652
2016-09-30T10:42:41.485Z,7828
2016-09-30T10:43:41.519Z,7712
2016-09-30T10:44:41.579Z,7584
2016-09-30T10:45:41.633Z,7888
2016-09-30T10:46:41.703Z,8936
2016-09-30T10:47:41.768Z,9524
2016-09-30T10:48:41.806Z,8208
2016-09-30T10:49:41.981Z,10776
2016-09-30T10:50:41.929Z,8376
2016-09-30T10:51:41.987Z,6628
2016-09-30T10:52:42.046Z,6740
2016-09-30T10:53:42.092Z,7456
2016-09-30T10:54:42.144Z,8252
2016-09-30T10:55:42.221Z,9416
2016-09-30T10:56:42.277Z,11360
2016-09-30T10:57:42.343Z,12000
2016-09-30T10:58:42.389Z,11532
2016-09-30T10:59:42.451Z,28544
2016-09-30T11:00:42.511Z,51616
2016-09-30T11:01:42.572Z,55232
2016-09-30T11:02:42.635Z,40768
2016-09-30T11:03:42.681Z,51328
2016-09-30T11:04:42.764Z,66656
2016-09-30T11:05:42.794Z,63904
2016-09-30T11:06:42.862Z,62144
2016-09-30T11:07:42.921Z,65408
2016-09-30T11:08:42.980Z,68224
2016-09-30T11:09:43.046Z,68288
2016-09-30T11:10:43.090Z,67776
2016-09-30T11:11:43.148Z,68640
2016-09-30T11:12:43.221Z,68128
2016-09-30T11:13:43.276Z,67200
2016-09-30T11:15:43.377Z,70048
2016-09-30T11:16:43.435Z,67840
2016-09-30T11:17:43.499Z,61088
2016-09-30T11:18:43.550Z,68800
2016-09-30T11:19:43.620Z,70272
2016-09-30T11:20:43.674Z,68640
2016-09-30T11:21:43.731Z,67360
2016-09-30T11:22:43.765Z,68352
2016-09-30T11:23:43.845Z,68384
2016-09-30T11:24:43.891Z,69280
2016-09-30T11:25:43.962Z,69056
2016-09-30T11:26:44.017Z,72576
2016-09-30T11:27:44.057Z,67104
2016-09-30T11:28:44.142Z,56320
2016-09-30T11:29:44.195Z,67744
2016-09-30T11:30:44.232Z,70144
2016-09-30T11:31:44.303Z,70848
2016-09-30T11:32:44.357Z,69952
2016-09-30T11:33:44.413Z,70496
2016-09-30T11:34:44.487Z,67808
2016-09-30T11:35:44.548Z,68000
2016-09-30T11:36:44.576Z,72448
2016-09-30T11:37:44.672Z,73152
2016-09-30T11:38:44.701Z,68128
2016-09-30T11:39:44.774Z,68224
2016-09-30T11:40:44.845Z,70144
2016-09-30T11:41:44.902Z,69536
2016-09-30T11:42:44.926Z,72064
2016-09-30T11:43:44.986Z,72608
2016-09-30T11:44:45.075Z,71104
2016-09-30T11:45:45.114Z,63904
2016-09-30T11:46:45.168Z,63264
2016-09-30T11:47:45.227Z,27776
2016-09-30T11:48:45.285Z,69696
2016-09-30T11:49:45.359Z,73952
2016-09-30T11:50:45.403Z,76448
2016-09-30T11:51:45.448Z,35584
2016-09-30T11:52:45.519Z,69280
2016-09-30T11:53:45.594Z,72960
2016-09-30T11:54:45.636Z,58624
2016-09-30T11:55:45.703Z,32640
2016-09-30T11:56:45.755Z,76128
2016-09-30T11:57:45.819Z,72128
2016-09-30T11:58:45.855Z,11060
2016-09-30T11:59:45.948Z,74176
2016-09-30T12:00:46.007Z,67904
2016-09-30T12:01:46.052Z,73920
2016-09-30T12:02:46.124Z,72768
2016-09-30T12:03:46.190Z,28576
2016-09-30T12:04:46.207Z,72192
2016-09-30T12:05:46.270Z,10260
2016-09-30T12:06:46.326Z,15104
2016-09-30T12:07:46.403Z,14684
2016-09-30T12:08:46.455Z,55776
2016-09-30T12:09:46.519Z,72640
2016-09-30T12:10:46.563Z,70080
2016-09-30T12:11:46.626Z,74144
2016-09-30T12:12:46.692Z,74432
2016-09-30T12:13:46.753Z,46784
2016-09-30T12:14:46.815Z,30656
2016-09-30T12:15:46.848Z,61312
2016-09-30T12:16:46.932Z,74752
2016-09-30T12:17:46.968Z,70368
2016-09-30T12:18:47.034Z,72352
2016-09-30T12:19:47.102Z,71136
2016-09-30T12:20:47.156Z,72032
2016-09-30T12:21:47.200Z,72704
2016-09-30T12:22:47.279Z,71392
2016-09-30T12:23:47.347Z,66816
2016-09-30T12:24:47.411Z,62784
2016-09-30T12:25:47.470Z,68064
2016-09-30T12:26:47.526Z,74304
2016-09-30T12:27:47.567Z,70112
2016-09-30T12:28:47.642Z,63616
2016-09-30T12:29:47.681Z,66016
2016-09-30T12:30:47.745Z,71360
2016-09-30T12:31:47.810Z,72960
2016-09-30T12:32:47.845Z,71008
2016-09-30T12:33:47.913Z,70304
2016-09-30T12:34:47.985Z,71104
2016-09-30T12:35:48.348Z,70752
2016-09-30T12:36:48.088Z,70048
2016-09-30T12:37:48.156Z,72768
2016-09-30T12:38:48.231Z,72928
2016-09-30T12:39:48.292Z,72352
2016-09-30T12:40:48.337Z,68960
2016-09-30T12:41:48.378Z,70240
2016-09-30T12:42:48.457Z,72160
2016-09-30T12:43:48.495Z,70624
2016-09-30T12:44:48.575Z,67808
2016-09-30T12:45:48.640Z,67136
2016-09-30T12:46:48.693Z,66880
2016-09-30T12:47:48.750Z,69600
2016-09-30T12:48:48.806Z,68960
2016-09-30T12:49:48.863Z,67648
2016-09-30T12:50:48.936Z,67488
2016-09-30T12:51:48.966Z,67872
2016-09-30T12:52:49.022Z,67488
2016-09-30T12:53:49.086Z,67680
2016-09-30T12:54:49.143Z,67168
2016-09-30T12:55:49.218Z,68224
2016-09-30T12:56:49.307Z,66784
2016-09-30T12:57:49.342Z,66528
2016-09-30T12:58:49.702Z,68384
2016-09-30T12:59:49.444Z,68672
2016-09-30T13:00:49.522Z,66336
2016-09-30T13:01:49.559Z,48800
2016-09-30T13:02:49.655Z,3176
2016-09-30T13:03:49.695Z,3568
2016-09-30T13:04:49.745Z,13224
2016-09-30T13:05:49.827Z,64288
2016-09-30T13:06:49.879Z,61632
2016-09-30T13:07:49.950Z,61088
2016-09-30T13:08:50.000Z,42304
2016-09-30T13:09:50.062Z,17664
2016-09-30T13:10:50.118Z,10408
2016-09-30T13:11:50.386Z,10312
2016-09-30T13:12:50.247Z,8076
2016-09-30T13:13:50.289Z,6652
2016-09-30T13:14:50.369Z,4848
2016-09-30T13:15:50.427Z,4148
2016-09-30T13:16:50.481Z,3576
2016-09-30T13:17:50.532Z,3076
2016-09-30T13:18:50.589Z,3744
2016-09-30T13:19:50.647Z,3920
2016-09-30T13:20:50.686Z,4732
2016-09-30T13:21:50.785Z,4888
2016-09-30T13:22:50.820Z,4028
2016-09-30T13:23:50.871Z,2644
2016-09-30T13:24:50.938Z,2504
2016-09-30T13:25:50.985Z,2476
2016-09-30T13:26:51.395Z,1660
2016-09-30T13:27:51.116Z,1340
2016-09-30T13:28:51.174Z,2972
2016-09-30T13:29:51.232Z,2472
2016-09-30T13:30:51.306Z,1672
2016-09-30T13:31:51.349Z,2800
2016-09-30T13:32:51.406Z,5784
2016-09-30T13:33:51.464Z,2292
2016-09-30T13:34:51.556Z,2240
2016-09-30T13:35:51.603Z,2064
2016-09-30T13:36:51.649Z,2096
2016-09-30T13:37:51.726Z,2048
2016-09-30T13:38:51.771Z,2596
2016-09-30T13:39:51.837Z,3116
2016-09-30T13:40:51.892Z,3440
2016-09-30T13:41:51.935Z,4800
2016-09-30T13:42:51.989Z,3016
2016-09-30T13:43:52.058Z,2088
2016-09-30T13:44:52.114Z,2060
2016-09-30T13:45:52.273Z,2004
2016-09-30T13:46:52.226Z,1872
2016-09-30T13:47:52.299Z,1800
2016-09-30T13:48:52.356Z,1808